Time;durP1;ratioP1;P1;durP2;ratioP2;P2;SDS_P1;SDS_P2;PMS_P1;PMS_P2;Temp;Humidity;BMP_temperature;BMP_pressure;BME280_temperature;BME280_humidity;BME280_pressure;Samples;Min_cycle;Max_cycle;Signal;HPM_P1;HPM_P2
2023/01/28 00:01:23;;;;;;;9.82;5.47;;;-1.20;99.90;;;;;;8318127;28;20029;-78
2023/01/28 00:05:24;;;;;;;1.23;1.13;;;-1.00;99.90;;;;;;8316138;28;20472;-77
2023/01/28 00:09:24;;;;;;;9.82;4.60;;;-1.10;99.90;;;;;;8310113;28;20475;-78
2023/01/28 00:13:25;;;;;;;3.53;2.88;;;-1.10;99.90;;;;;;8321690;28;20036;-78
2023/01/28 00:17:26;;;;;;;6.20;3.67;;;-1.00;99.90;;;;;;8336024;28;20033;-79
2023/01/28 00:21:26;;;;;;;16.65;6.90;;;-1.00;99.90;;;;;;8314520;28;20068;-79
2023/01/28 00:25:27;;;;;;;6.32;3.08;;;-1.00;99.90;;;;;;8339715;28;20448;-78
2023/01/28 00:29:27;;;;;;;3.13;2.05;;;-1.00;99.90;;;;;;8326043;28;20079;-79
2023/01/28 00:33:28;;;;;;;11.73;5.05;;;-1.00;99.90;;;;;;8328012;28;20021;-78
2023/01/28 00:37:28;;;;;;;8.40;3.90;;;-1.00;99.90;;;;;;8323069;28;20030;-79
2023/01/28 00:41:30;;;;;;;2.58;2.38;;;-1.00;99.90;;;;;;8316772;28;20505;-78
2023/01/28 00:45:30;;;;;;;10.70;5.40;;;-1.10;99.90;;;;;;8319119;28;20037;-80
2023/01/28 00:49:31;;;;;;;1.95;1.13;;;-1.10;99.90;;;;;;8330478;28;20096;-78
2023/01/28 00:53:33;;;;;;;10.57;4.60;;;-1.10;99.90;;;;;;8336675;28;20113;-77
2023/01/28 00:57:34;;;;;;;10.60;5.57;;;-1.10;99.90;;;;;;8323553;28;20407;-78
2023/01/28 01:01:34;;;;;;;1.27;1.02;;;-1.10;99.90;;;;;;8317529;28;20029;-78
2023/01/28 01:05:35;;;;;;;10.30;4.40;;;-1.20;99.90;;;;;;8310208;28;20044;-79
2023/01/28 01:09:35;;;;;;;8.20;5.18;;;-1.20;99.90;;;;;;8312953;28;20116;-78
2023/01/28 01:13:36;;;;;;;1.75;1.13;;;-1.10;99.90;;;;;;8306924;28;20052;-78
2023/01/28 01:17:39;;;;;;;4.82;2.83;;;-1.10;99.90;;;;;;8334099;28;20027;-78
2023/01/28 01:21:39;;;;;;;6.13;3.05;;;-1.20;99.90;;;;;;8316904;28;20018;-79
2023/01/28 01:25:40;;;;;;;5.15;3.75;;;-1.20;99.90;;;;;;8322728;28;20044;-78
2023/01/28 01:29:40;;;;;;;15.32;5.28;;;-1.20;99.90;;;;;;8332504;28;20044;-78
2023/01/28 01:33:41;;;;;;;5.68;2.90;;;-1.20;99.90;;;;;;8321759;28;20052;-78
2023/01/28 01:37:44;;;;;;;4.18;3.13;;;-1.20;99.90;;;;;;8323493;28;20028;-79
2023/01/28 01:41:44;;;;;;;9.95;5.15;;;-1.20;99.90;;;;;;8321940;28;20021;-77
2023/01/28 01:45:56;;;;;;;8.52;4.45;;;-1.20;99.90;;;;;;8323097;28;20485;-78
2023/01/28 01:50:00;;;;;;;7.80;4.32;;;-1.20;99.90;;;;;;8334751;28;20116;-77
2023/01/28 01:54:01;;;;;;;4.75;1.38;;;-1.20;99.90;;;;;;8315554;28;20055;-77
2023/01/28 01:58:07;;;;;;;15.63;5.72;;;-1.20;99.90;;;;;;8327663;28;20055;-79
2023/01/28 02:02:10;;;;;;;4.75;1.95;;;-1.30;99.90;;;;;;8321496;28;20033;-78
2023/01/28 02:06:11;;;;;;;6.93;3.10;;;-1.30;99.90;;;;;;8329795;28;20036;-77
2023/01/28 02:10:13;;;;;;;10.10;4.60;;;-1.30;99.90;;;;;;8341741;28;20210;-79
2023/01/28 02:14:13;;;;;;;13.40;5.35;;;-1.30;99.90;;;;;;8318594;28;20026;-78
2023/01/28 02:18:14;;;;;;;13.95;7.00;;;-1.30;99.90;;;;;;8317374;28;20038;-79
2023/01/28 02:22:33;;;;;;;8.07;2.53;;;-1.30;99.90;;;;;;8319833;28;20022;-76
2023/01/28 02:26:47;;;;;;;16.23;5.22;;;-1.30;99.90;;;;;;8336342;28;20027;-78
2023/01/28 02:30:51;;;;;;;14.63;4.47;;;-1.30;99.90;;;;;;8328231;28;20099;-77
2023/01/28 02:35:21;;;;;;;13.63;7.10;;;-1.20;99.90;;;;;;8324786;28;20545;-78
2023/01/28 02:39:36;;;;;;;4.50;2.55;;;-1.30;99.90;;;;;;8338297;28;20029;-78
2023/01/28 02:43:45;;;;;;;11.20;4.93;;;-1.20;99.90;;;;;;8318157;28;20061;-77
2023/01/28 02:47:57;;;;;;;19.23;7.38;;;-1.20;99.90;;;;;;8320821;28;20022;-77
2023/01/28 02:52:07;;;;;;;19.30;8.57;;;-1.20;99.90;;;;;;8319830;28;20481;-77
2023/01/28 02:56:20;;;;;;;11.48;5.45;;;-1.30;99.90;;;;;;8314906;28;20052;-77
2023/01/28 03:00:28;;;;;;;5.18;2.55;;;-1.20;99.90;;;;;;8325906;28;20658;-78
2023/01/28 03:04:33;;;;;;;11.90;5.03;;;-1.20;99.90;;;;;;8312807;28;20374;-79
2023/01/28 03:39:44;;;;;;;7.30;3.35;;;-1.20;99.90;;;;;;8335596;28;20040;-77
2023/01/28 03:43:45;;;;;;;13.73;5.70;;;-1.20;99.90;;;;;;8336094;28;20025;-78
2023/01/28 03:47:46;;;;;;;6.93;2.50;;;-1.20;99.90;;;;;;8347552;28;20025;-78
2023/01/28 03:51:46;;;;;;;12.38;4.88;;;-1.20;99.90;;;;;;8308891;28;20029;-78
2023/01/28 03:55:49;;;;;;;12.38;4.88;;;-1.10;99.90;;;;;;8327966;28;20080;-78
2023/01/28 03:59:51;;;;;;;15.77;6.82;;;-1.20;99.90;;;;;;8299421;28;20402;-78
2023/01/28 04:03:51;;;;;;;12.82;5.97;;;-1.20;99.90;;;;;;8319151;28;20035;-78
2023/01/28 04:07:55;;;;;;;17.00;6.85;;;-1.20;99.90;;;;;;8313214;28;20057;-78
2023/01/28 04:11:56;;;;;;;7.63;3.60;;;-1.00;99.90;;;;;;8320251;28;20033;-78
2023/01/28 04:15:57;;;;;;;5.57;2.95;;;-1.20;99.90;;;;;;8311705;28;20393;-77
2023/01/28 04:19:57;;;;;;;6.53;2.90;;;-1.20;99.90;;;;;;8333087;28;20029;-78
2023/01/28 04:23:58;;;;;;;6.72;3.38;;;-1.20;99.90;;;;;;8315155;28;20110;-77
2023/01/28 04:27:58;;;;;;;6.60;3.92;;;-1.20;99.90;;;;;;8346474;28;20021;-78
2023/01/28 04:31:59;;;;;;;2.78;1.98;;;-1.20;99.90;;;;;;8336456;28;20026;-78
2023/01/28 04:36:00;;;;;;;8.15;3.97;;;-1.20;99.90;;;;;;8322594;28;20053;-78
2023/01/28 04:40:00;;;;;;;10.95;5.65;;;-1.10;99.90;;;;;;8301889;28;20025;-78
2023/01/28 04:44:01;;;;;;;19.08;6.93;;;-1.20;99.90;;;;;;8306791;28;20408;-77
2023/01/28 04:48:01;;;;;;;7.78;3.67;;;-1.20;99.90;;;;;;8308404;28;20033;-78
2023/01/28 04:52:02;;;;;;;18.40;7.60;;;-1.10;99.90;;;;;;8311290;28;20103;-78
2023/01/28 04:56:02;;;;;;;6.18;3.55;;;-1.20;99.90;;;;;;8306245;28;20164;-79
2023/01/28 05:00:04;;;;;;;14.80;6.47;;;-1.10;99.90;;;;;;8318770;28;20452;-77
2023/01/28 05:04:04;;;;;;;8.00;5.13;;;-1.10;99.90;;;;;;8304003;28;20026;-78
2023/01/28 05:08:05;;;;;;;5.25;2.80;;;-1.20;99.90;;;;;;8311455;28;20616;-78
2023/01/28 05:12:06;;;;;;;12.75;7.15;;;-1.20;99.90;;;;;;8309030;28;20540;-78
2023/01/28 05:16:06;;;;;;;10.63;4.90;;;-1.20;99.90;;;;;;8309731;28;20061;-78
2023/01/28 05:20:08;;;;;;;9.27;4.78;;;-1.20;99.90;;;;;;8327253;28;20025;-77
2023/01/28 05:24:09;;;;;;;12.18;6.38;;;-1.10;99.90;;;;;;8344877;28;20029;-78
2023/01/28 05:28:09;;;;;;;11.95;6.57;;;-1.10;99.90;;;;;;8322265;28;20152;-77
2023/01/28 05:32:10;;;;;;;5.38;2.72;;;-1.10;99.90;;;;;;8335026;28;20036;-78
2023/01/28 05:36:10;;;;;;;8.38;4.82;;;-1.10;99.90;;;;;;8331621;28;20031;-78
2023/01/28 05:40:11;;;;;;;12.98;6.18;;;-1.10;99.90;;;;;;8319116;28;20402;-78
2023/01/28 05:44:12;;;;;;;11.32;4.07;;;-1.20;99.90;;;;;;8313788;28;20053;-78
2023/01/28 05:48:13;;;;;;;6.32;4.32;;;-1.10;99.90;;;;;;8322899;28;20056;-75
2023/01/28 05:52:13;;;;;;;14.73;6.13;;;-1.10;99.90;;;;;;8316022;28;20033;-78
2023/01/28 05:56:14;;;;;;;11.88;4.97;;;-1.10;99.90;;;;;;8331230;28;20653;-78
2023/01/28 06:00:15;;;;;;;11.45;4.95;;;-1.00;99.90;;;;;;8319389;28;20044;-78
2023/01/28 06:04:17;;;;;;;0.93;0.90;;;-1.10;99.90;;;;;;8322461;28;20524;-78
2023/01/28 06:08:18;;;;;;;10.68;5.43;;;-1.10;99.90;;;;;;8325707;28;20120;-78
2023/01/28 06:12:18;;;;;;;7.72;4.50;;;-1.20;99.90;;;;;;8338260;28;20029;-78
2023/01/28 06:16:19;;;;;;;6.38;3.05;;;-1.20;99.90;;;;;;8333580;28;20630;-77
2023/01/28 06:20:20;;;;;;;7.07;3.42;;;-1.20;99.90;;;;;;8333344;28;20087;-78
2023/01/28 06:24:21;;;;;;;13.80;5.82;;;-1.20;99.90;;;;;;8306349;28;20088;-77
2023/01/28 06:28:23;;;;;;;17.35;7.65;;;-1.20;99.90;;;;;;8316157;28;20116;-78
2023/01/28 06:32:23;;;;;;;18.63;7.72;;;-1.30;99.90;;;;;;8306060;28;20026;-82
2023/01/28 06:36:24;;;;;;;14.82;7.63;;;-1.40;99.90;;;;;;8309432;28;20126;-81
2023/01/28 06:40:25;;;;;;;18.65;7.90;;;-1.40;99.90;;;;;;8328118;28;20463;-81
2023/01/28 06:44:25;;;;;;;11.57;5.03;;;-1.40;99.90;;;;;;8321123;28;20031;-82
2023/01/28 06:48:26;;;;;;;4.55;2.88;;;-1.20;99.90;;;;;;8326792;28;20401;-81
2023/01/28 06:52:27;;;;;;;15.45;7.68;;;-1.20;99.90;;;;;;8319290;28;20022;-81
2023/01/28 06:56:27;;;;;;;12.50;6.03;;;-1.30;99.90;;;;;;8313201;28;20018;-82
2023/01/28 07:00:28;;;;;;;3.70;2.47;;;-1.20;99.90;;;;;;8321890;28;20088;-82
2023/01/28 07:04:28;;;;;;;16.20;7.78;;;-1.30;99.90;;;;;;8310639;28;20041;-82
2023/01/28 07:08:29;;;;;;;13.35;6.80;;;-1.20;99.90;;;;;;8312829;28;20037;-82
2023/01/28 07:12:30;;;;;;;9.20;4.13;;;-1.20;99.90;;;;;;8313534;28;20017;-82
2023/01/28 07:16:30;;;;;;;13.57;5.68;;;-1.20;99.90;;;;;;8301735;28;20537;-81
2023/01/28 07:20:31;;;;;;;13.80;6.65;;;-1.20;99.90;;;;;;8331636;28;20024;-83
2023/01/28 07:24:31;;;;;;;9.30;4.53;;;-1.20;99.90;;;;;;8326573;28;20016;-83
2023/01/28 07:28:32;;;;;;;6.57;2.42;;;-1.20;99.90;;;;;;8327667;28;20095;-82
2023/01/28 07:32:39;;;;;;;10.90;3.95;;;-1.10;99.90;;;;;;8331572;28;20640;-83
2023/01/28 07:36:42;;;;;;;19.42;8.48;;;-1.20;99.90;;;;;;8350805;28;20497;-83
2023/01/28 07:40:46;;;;;;;5.47;2.40;;;-1.10;99.90;;;;;;8327074;28;20097;-82
2023/01/28 07:45:30;;;;;;;;;;;;;;;;;;;;;
2023/01/28 07:59:26;;;;;;;2.50;1.85;;;-0.50;99.90;;;;;;8289841;28;20091;-82
2023/01/28 08:03:27;;;;;;;15.05;6.03;;;-0.60;99.90;;;;;;8272437;28;20045;-82
2023/01/28 08:07:28;;;;;;;15.30;7.32;;;-0.60;99.90;;;;;;8219572;28;20041;-82
2023/01/28 08:11:29;;;;;;;11.15;3.70;;;-0.50;99.90;;;;;;8226119;28;21625;-82
2023/01/28 08:15:29;;;;;;;15.15;6.78;;;-0.40;99.90;;;;;;8217561;28;20094;-82
2023/01/28 08:19:30;;;;;;;9.82;4.90;;;-0.40;99.90;;;;;;8215201;28;20030;-82
2023/01/28 08:23:33;;;;;;;12.30;3.85;;;-0.20;99.90;;;;;;8225882;28;20061;-83
2023/01/28 08:27:33;;;;;;;15.77;7.55;;;-0.10;99.90;;;;;;8216377;28;20054;-83
2023/01/28 08:31:34;;;;;;;4.47;1.70;;;0.00;99.90;;;;;;8218262;28;20062;-83
2023/01/28 08:35:35;;;;;;;6.63;3.35;;;-0.10;99.90;;;;;;8224697;28;20027;-82
2023/01/28 08:39:36;;;;;;;14.68;5.22;;;0.00;99.90;;;;;;8222421;28;20046;-82
2023/01/28 08:43:37;;;;;;;8.63;4.32;;;0.00;99.90;;;;;;8234985;28;20047;-83
2023/01/28 08:48:00;;;;;;;13.75;6.70;;;-0.10;99.90;;;;;;8219074;28;20501;-82
2023/01/28 08:52:00;;;;;;;10.23;5.40;;;-0.10;99.90;;;;;;8235701;28;20027;-83
2023/01/28 08:56:01;;;;;;;15.20;6.03;;;-0.30;99.90;;;;;;8237845;28;20045;-82
2023/01/28 09:00:01;;;;;;;12.55;6.35;;;-0.20;99.90;;;;;;8246049;28;20080;-82
2023/01/28 09:04:02;;;;;;;5.28;3.30;;;-0.10;99.90;;;;;;8223035;28;20030;-83
2023/01/28 09:08:05;;;;;;;8.68;4.30;;;-0.20;99.90;;;;;;8222874;28;20503;-82
2023/01/28 09:12:07;;;;;;;5.00;3.30;;;-0.10;99.90;;;;;;8213418;28;20030;-82
2023/01/28 09:16:08;;;;;;;18.25;5.75;;;-0.10;99.90;;;;;;8215375;28;20030;-82
2023/01/28 09:20:09;;;;;;;11.30;5.00;;;-0.10;99.90;;;;;;8214592;28;20112;-83
2023/01/28 09:24:11;;;;;;;3.88;2.83;;;-0.10;99.90;;;;;;8228023;28;20035;-83
2023/01/28 09:28:11;;;;;;;14.43;7.15;;;-0.10;99.90;;;;;;8205464;28;20562;-84
2023/01/28 09:32:12;;;;;;;8.63;3.97;;;-0.30;99.90;;;;;;8240834;28;20070;-83
2023/01/28 09:36:12;;;;;;;12.27;5.85;;;-0.30;99.90;;;;;;8225593;28;20027;-83
2023/01/28 09:40:20;;;;;;;7.38;3.78;;;-0.40;99.90;;;;;;8236012;28;20027;-82
2023/01/28 09:45:00;;;;;;;11.40;6.15;;;-0.40;99.90;;;;;;8238609;28;20074;-83
2023/01/28 09:49:13;;;;;;;11.38;3.75;;;-0.30;99.90;;;;;;8185935;28;20038;-83
2023/01/28 09:53:24;;;;;;;11.25;5.65;;;-0.30;99.90;;;;;;8226273;28;20034;-83
2023/01/28 09:57:38;;;;;;;4.57;2.55;;;-0.30;99.90;;;;;;8255669;28;20049;-82
2023/01/28 10:01:49;;;;;;;10.93;5.45;;;-0.20;99.90;;;;;;8230801;28;20078;-83
2023/01/28 10:06:13;;;;;;;7.25;4.28;;;0.00;99.90;;;;;;8221198;28;20034;-81
2023/01/28 10:10:24;;;;;;;12.20;7.05;;;0.30;99.90;;;;;;8234471;28;20033;-84
2023/01/28 10:14:34;;;;;;;8.05;4.13;;;0.50;99.90;;;;;;8309583;22;20415;-82
2023/01/28 10:18:57;;;;;;;8.93;4.93;;;0.50;99.90;;;;;;8291807;28;20104;-83
2023/01/28 10:23:10;;;;;;;7.20;4.10;;;0.30;99.90;;;;;;8277211;28;20029;-83
2023/01/28 10:27:23;;;;;;;7.55;3.47;;;0.20;99.90;;;;;;8272643;28;20018;-82
2023/01/28 10:31:31;;;;;;;3.85;2.38;;;0.30;99.90;;;;;;8266315;28;20426;-83
2023/01/28 10:35:37;;;;;;;10.70;5.18;;;0.30;99.90;;;;;;8264618;28;20049;-82
2023/01/28 10:39:38;;;;;;;12.60;5.32;;;0.20;99.90;;;;;;8295743;28;20109;-82
2023/01/28 10:43:41;;;;;;;6.00;3.85;;;0.20;99.90;;;;;;8275416;28;20025;-83
2023/01/28 10:47:50;;;;;;;6.78;4.05;;;0.30;99.90;;;;;;8268739;28;20036;-82
2023/01/28 10:51:51;;;;;;;11.60;5.35;;;0.30;99.90;;;;;;8266548;28;20038;-83
2023/01/28 10:55:57;;;;;;;10.45;5.57;;;0.40;99.90;;;;;;8284086;28;20186;-81
2023/01/28 11:00:08;;;;;;;7.85;4.68;;;0.50;99.90;;;;;;8275061;28;20057;-82
2023/01/28 11:04:26;;;;;;;10.68;4.38;;;0.30;99.90;;;;;;8295985;28;20044;-81
2023/01/28 11:08:29;;;;;;;4.13;2.88;;;0.30;99.90;;;;;;8282558;28;20030;-82
2023/01/28 11:12:30;;;;;;;6.45;3.33;;;0.50;99.90;;;;;;8258744;28;20030;-83
2023/01/28 11:16:30;;;;;;;3.60;1.67;;;0.50;99.90;;;;;;8267365;28;20034;-82
2023/01/28 11:20:41;;;;;;;9.40;3.80;;;0.50;99.90;;;;;;8263716;28;20030;-83
2023/01/28 11:24:42;;;;;;;5.20;3.55;;;0.50;99.90;;;;;;8275172;28;20080;-85
2023/01/28 11:28:43;;;;;;;10.07;4.88;;;0.90;99.90;;;;;;8262830;28;20068;-85
2023/01/28 11:32:44;;;;;;;4.90;1.85;;;1.00;99.90;;;;;;8264287;28;20026;-83
2023/01/28 11:37:22;;;;;;;10.15;5.63;;;0.90;99.90;;;;;;8284704;28;20026;-83
2023/01/28 11:41:28;;;;;;;7.53;3.75;;;1.00;99.90;;;;;;8253511;28;20034;-82
2023/01/28 11:45:42;;;;;;;5.88;2.95;;;0.90;99.90;;;;;;8291622;22;20419;-84
2023/01/28 11:50:12;;;;;;;3.88;2.22;;;0.80;99.90;;;;;;8259473;28;20034;-84
2023/01/28 11:54:31;;;;;;;8.52;3.00;;;0.80;99.90;;;;;;8260458;28;20026;-83
2023/01/28 11:58:32;;;;;;;6.50;3.85;;;0.80;99.90;;;;;;8269563;28;20121;-84
2023/01/28 12:02:52;;;;;;;4.43;2.65;;;0.90;99.90;;;;;;8289323;28;20033;-83
2023/01/28 12:07:24;;;;;;;5.75;2.47;;;0.90;99.90;;;;;;8271444;28;20034;-83
2023/01/28 12:16:12;;;;;;;7.30;3.67;;;1.00;99.90;;;;;;8286658;28;20084;-85
2023/01/28 12:21:09;;;;;;;;;;;;;;;;;;;;;
2023/01/28 12:25:39;;;;;;;5.05;2.88;;;0.60;99.90;;;;;;8289121;28;20034;-84
2023/01/28 12:35:31;;;;;;;;;;;;;;;;;;;;;
2023/01/28 12:39:53;;;;;;;5.55;3.17;;;0.90;99.90;;;;;;8274977;28;20054;-85
2023/01/28 12:44:02;;;;;;;5.75;2.22;;;1.20;99.90;;;;;;8258977;28;20080;-84
2023/01/28 12:48:43;;;;;;;4.45;2.38;;;1.20;99.90;;;;;;8273686;28;20401;-85
2023/01/28 12:53:14;;;;;;;4.28;3.03;;;1.50;99.90;;;;;;8265924;28;20076;-84
2023/01/28 12:57:26;;;;;;;9.77;4.65;;;0.70;99.90;;;;;;8249855;28;20471;-84
2023/01/28 13:01:47;;;;;;;11.20;6.13;;;0.80;99.90;;;;;;8258195;28;20030;-83
2023/01/28 13:06:18;;;;;;;6.45;3.70;;;0.90;99.90;;;;;;8263236;28;20066;-83
2023/01/28 13:10:26;;;;;;;;;;;1.20;99.90;;;;;;8257395;28;20038;-84
2023/01/28 13:14:30;;;;;;;5.57;2.88;;;1.20;99.90;;;;;;8257783;28;20008;-84
2023/01/28 13:18:32;;;;;;;3.15;1.83;;;1.20;99.90;;;;;;8265839;28;20018;-84
2023/01/28 13:22:34;;;;;;;6.28;3.30;;;0.70;99.90;;;;;;8291690;28;20034;-84
2023/01/28 13:26:54;;;;;;;11.20;5.32;;;0.50;99.90;;;;;;8264220;28;20033;-84
2023/01/28 13:31:22;;;;;;;7.68;3.33;;;0.50;99.90;;;;;;8270010;28;20030;-84
2023/01/28 13:35:36;;;;;;;4.45;2.95;;;0.90;99.90;;;;;;8262989;28;20129;-84
2023/01/28 13:39:37;;;;;;;13.88;6.07;;;1.50;99.90;;;;;;8271534;28;20037;-83
2023/01/28 13:43:41;;;;;;;8.65;3.95;;;2.00;99.90;;;;;;8275335;28;20053;-82
2023/01/28 13:47:47;;;;;;;7.47;3.13;;;2.10;99.90;;;;;;8296673;28;20379;-84
2023/01/28 13:52:00;;;;;;;5.22;2.35;;;1.50;99.90;;;;;;8285396;28;20036;-84
2023/01/28 13:56:06;;;;;;;4.03;2.33;;;1.00;99.90;;;;;;8275995;28;20034;-84
2023/01/28 14:00:40;;;;;;;3.60;2.00;;;1.10;99.90;;;;;;8268088;28;20026;-85
2023/01/28 14:05:07;;;;;;;3.03;1.08;;;1.20;99.90;;;;;;8270736;28;20027;-83
2023/01/28 14:09:07;;;;;;;6.10;1.27;;;1.30;99.90;;;;;;8264205;28;20061;-84
2023/01/28 14:13:45;;;;;;;6.78;2.85;;;1.20;99.90;;;;;;8267979;28;20030;-85
2023/01/28 14:17:49;;;;;;;10.93;4.82;;;1.00;99.90;;;;;;8285737;28;20041;-84
2023/01/28 14:21:49;;;;;;;10.23;4.05;;;0.90;99.90;;;;;;8253930;28;20309;-84
2023/01/28 14:26:15;;;;;;;3.50;1.75;;;0.90;99.90;;;;;;8282302;28;20030;-85
2023/01/28 14:30:53;;;;;;;4.28;3.00;;;1.00;99.90;;;;;;8261181;28;20521;-84
2023/01/28 14:34:55;;;;;;;8.82;4.53;;;0.90;99.90;;;;;;8287239;28;20035;-85
2023/01/28 14:38:57;;;;;;;8.73;3.53;;;0.80;99.90;;;;;;8260928;28;20030;-85
2023/01/28 14:42:57;;;;;;;8.23;4.30;;;0.80;99.90;;;;;;8267816;28;20050;-84
2023/01/28 14:47:16;;;;;;;7.60;3.55;;;0.80;99.90;;;;;;8279807;28;20114;-84
2023/01/28 14:51:42;;;;;;;8.23;4.57;;;0.80;99.90;;;;;;8262575;28;20025;-84
2023/01/28 14:55:43;;;;;;;7.32;3.63;;;0.80;99.90;;;;;;8264546;28;20634;-84
2023/01/28 14:59:51;;;;;;;5.00;2.33;;;0.70;99.90;;;;;;8282743;28;20029;-84
2023/01/28 15:03:52;;;;;;;3.35;1.60;;;0.70;99.90;;;;;;8288723;28;20513;-84
2023/01/28 15:07:54;;;;;;;4.18;2.60;;;0.70;99.90;;;;;;8290736;28;20040;-84
2023/01/28 15:11:57;;;;;;;8.38;3.63;;;0.60;99.90;;;;;;8279240;28;20696;-83
2023/01/28 15:15:59;;;;;;;6.75;2.17;;;0.50;99.90;;;;;;8279612;28;20021;-83
2023/01/28 15:20:00;;;;;;;6.82;2.92;;;0.50;99.90;;;;;;8285565;28;20030;-83
2023/01/28 15:24:02;;;;;;;8.38;4.18;;;0.50;99.90;;;;;;8283379;28;20037;-82
2023/01/28 15:28:02;;;;;;;2.00;1.08;;;0.50;99.90;;;;;;8287512;28;20552;-83
2023/01/28 15:32:04;;;;;;;7.88;4.53;;;0.50;99.90;;;;;;8285504;28;20044;-83
2023/01/28 15:36:05;;;;;;;9.07;4.50;;;0.50;99.90;;;;;;8286146;28;20061;-83
2023/01/28 15:40:07;;;;;;;9.27;3.08;;;0.40;99.90;;;;;;8281912;28;20042;-83
2023/01/28 15:44:27;;;;;;;9.50;5.53;;;0.40;99.90;;;;;;8282488;28;20034;-83
2023/01/28 15:48:32;;;;;;;5.03;2.63;;;0.30;99.90;;;;;;8278957;28;20030;-83
2023/01/28 15:52:36;;;;;;;9.80;4.93;;;0.30;99.90;;;;;;8271932;28;20663;-83
2023/01/28 15:56:36;;;;;;;7.97;4.55;;;0.40;99.90;;;;;;8273715;28;20485;-84
2023/01/28 16:00:37;;;;;;;7.15;4.43;;;0.40;99.90;;;;;;8265361;28;20100;-84
2023/01/28 16:04:38;;;;;;;12.40;5.63;;;0.30;99.90;;;;;;8265177;28;20165;-84
2023/01/28 16:08:55;;;;;;;6.10;3.38;;;0.30;99.90;;;;;;8261678;28;20657;-83
2023/01/28 16:13:20;;;;;;;5.53;3.40;;;0.30;99.90;;;;;;8258520;28;20026;-84
2023/01/28 16:17:23;;;;;;;16.45;6.60;;;0.30;99.90;;;;;;8263802;28;20034;-83
2023/01/28 16:21:37;;;;;;;3.47;2.58;;;0.40;99.90;;;;;;8268723;28;20497;-83
2023/01/28 16:25:38;;;;;;;12.88;6.40;;;0.40;99.90;;;;;;8282764;28;20033;-84
2023/01/28 16:29:38;;;;;;;8.10;3.88;;;0.40;99.90;;;;;;8261228;28;20120;-84
2023/01/28 16:33:39;;;;;;;7.88;3.92;;;0.30;99.90;;;;;;8257303;28;20022;-84
2023/01/28 16:37:52;;;;;;;11.35;5.78;;;0.30;99.90;;;;;;8262578;28;20088;-84
2023/01/28 16:42:17;;;;;;;8.43;3.85;;;0.10;99.90;;;;;;8267102;28;20097;-84
2023/01/28 16:46:18;;;;;;;9.27;2.50;;;0.20;99.90;;;;;;8279403;28;20046;-83
2023/01/28 16:50:20;;;;;;;11.20;4.45;;;0.20;99.90;;;;;;8268868;28;20411;-83
2023/01/28 16:54:21;;;;;;;10.98;4.78;;;0.20;99.90;;;;;;8262435;28;20018;-84
2023/01/28 16:58:24;;;;;;;2.25;2.08;;;0.20;99.90;;;;;;8284266;28;20029;-83
2023/01/28 17:02:25;;;;;;;10.43;5.82;;;0.20;99.90;;;;;;8267846;28;20081;-84
2023/01/28 17:06:26;;;;;;;10.40;5.32;;;0.10;99.90;;;;;;8273771;28;20026;-83
2023/01/28 17:10:26;;;;;;;6.38;3.92;;;0.10;99.90;;;;;;8290615;28;20542;-83
2023/01/28 17:14:27;;;;;;;8.20;2.17;;;0.00;99.90;;;;;;8285627;28;20032;-84
2023/01/28 17:18:28;;;;;;;11.52;4.22;;;0.00;99.90;;;;;;8286057;28;20018;-84
2023/01/28 17:22:29;;;;;;;4.95;2.65;;;-0.10;99.90;;;;;;8253458;28;20084;-83
2023/01/28 17:26:30;;;;;;;7.85;3.38;;;-0.10;99.90;;;;;;8264817;28;20034;-84
2023/01/28 17:30:31;;;;;;;4.13;2.22;;;-0.10;99.90;;;;;;8285630;28;20041;-84
2023/01/28 17:34:32;;;;;;;7.55;3.67;;;-0.10;99.90;;;;;;8260448;28;20022;-84
2023/01/28 17:38:32;;;;;;;12.70;5.38;;;-0.10;99.90;;;;;;8263599;28;20077;-83
2023/01/28 17:42:33;;;;;;;6.95;4.40;;;-0.10;99.90;;;;;;8258435;28;20042;-84
2023/01/28 17:46:33;;;;;;;16.98;6.50;;;-0.10;99.90;;;;;;8268408;28;20113;-83
2023/01/28 17:50:37;;;;;;;11.98;5.10;;;-0.10;99.90;;;;;;8253317;28;20037;-83
2023/01/28 17:54:38;;;;;;;11.15;5.82;;;0.00;99.90;;;;;;8264496;28;20026;-84
2023/01/28 17:58:38;;;;;;;9.07;4.40;;;-0.10;99.90;;;;;;8269092;28;20081;-83
2023/01/28 18:02:39;;;;;;;12.07;5.85;;;0.00;99.90;;;;;;8281846;28;20057;-83
2023/01/28 18:06:39;;;;;;;4.43;1.70;;;0.00;99.90;;;;;;8263046;28;20053;-83
2023/01/28 18:10:42;;;;;;;7.22;4.70;;;0.00;99.90;;;;;;8262013;28;20023;-83
2023/01/28 18:14:42;;;;;;;12.35;6.32;;;0.00;99.90;;;;;;8268458;28;20022;-83
2023/01/28 18:18:43;;;;;;;4.75;3.13;;;0.00;99.90;;;;;;8267673;28;20018;-83
2023/01/28 18:22:44;;;;;;;15.10;6.10;;;0.00;99.90;;;;;;8268123;28;20040;-84
2023/01/28 18:26:45;;;;;;;8.90;5.15;;;0.00;99.90;;;;;;8282956;28;20474;-82
2023/01/28 18:30:45;;;;;;;12.20;6.30;;;0.00;99.90;;;;;;8285176;28;20451;-83
2023/01/28 18:34:46;;;;;;;9.60;5.15;;;0.10;99.90;;;;;;8264128;28;20030;-84
2023/01/28 18:38:46;;;;;;;13.73;7.07;;;0.00;99.90;;;;;;8267081;28;20102;-83
2023/01/28 18:42:47;;;;;;;13.20;5.07;;;0.10;99.90;;;;;;8260975;28;20042;-84
2023/01/28 18:46:47;;;;;;;10.98;5.65;;;0.00;99.90;;;;;;8268317;28;20624;-84
2023/01/28 18:50:49;;;;;;;8.05;4.95;;;0.10;99.90;;;;;;8266539;28;20059;-84
2023/01/28 18:54:50;;;;;;;8.27;3.70;;;0.20;99.90;;;;;;8276978;28;20080;-84
2023/01/28 18:59:01;;;;;;;10.95;6.00;;;0.10;99.90;;;;;;8263950;28;20394;-84
2023/01/28 19:03:02;;;;;;;9.60;4.32;;;0.10;99.90;;;;;;8277643;28;20038;-84
2023/01/28 19:07:02;;;;;;;11.93;5.65;;;0.20;99.90;;;;;;8263463;28;20032;-83
2023/01/28 19:11:03;;;;;;;13.13;6.32;;;0.00;99.90;;;;;;8279939;28;20042;-84
2023/01/28 19:15:04;;;;;;;14.57;6.28;;;0.00;99.90;;;;;;8269551;28;20036;-84
2023/01/28 19:19:05;;;;;;;14.15;6.07;;;0.20;99.90;;;;;;8260004;28;20029;-83
2023/01/28 19:23:06;;;;;;;14.25;6.47;;;0.10;99.90;;;;;;8259866;28;20474;-83
2023/01/28 19:27:07;;;;;;;10.48;5.10;;;0.00;99.90;;;;;;8289548;28;20494;-83
2023/01/28 19:31:08;;;;;;;4.97;2.58;;;0.20;99.90;;;;;;8260126;28;20040;-83
2023/01/28 19:35:09;;;;;;;12.43;5.95;;;0.20;99.90;;;;;;8254473;28;20113;-83
2023/01/28 19:39:11;;;;;;;8.32;4.45;;;0.30;99.90;;;;;;8264027;28;20662;-84
2023/01/28 19:43:11;;;;;;;7.75;3.85;;;0.30;99.90;;;;;;8268242;28;20069;-83
2023/01/28 19:47:12;;;;;;;8.73;4.82;;;0.20;99.90;;;;;;8265183;28;20382;-83
2023/01/28 19:51:14;;;;;;;8.07;3.92;;;0.10;99.90;;;;;;8289980;28;20032;-83
2023/01/28 19:55:15;;;;;;;9.23;4.25;;;0.20;99.90;;;;;;8263841;28;20513;-83
2023/01/28 19:59:15;;;;;;;8.43;3.70;;;0.20;99.90;;;;;;8270376;28;20030;-83
2023/01/28 20:03:16;;;;;;;11.98;5.07;;;0.20;99.90;;;;;;8254646;28;20387;-83
2023/01/28 20:07:16;;;;;;;11.88;5.35;;;0.10;99.90;;;;;;8266515;28;20413;-84
2023/01/28 20:11:18;;;;;;;3.90;2.58;;;0.20;99.90;;;;;;8266868;28;20022;-83
2023/01/28 20:15:18;;;;;;;13.27;5.38;;;0.20;99.90;;;;;;8268820;28;20026;-83
2023/01/28 20:19:19;;;;;;;8.85;4.18;;;0.10;99.90;;;;;;8287620;28;20279;-83
2023/01/28 20:23:19;;;;;;;13.63;5.53;;;0.00;99.90;;;;;;8270795;28;20554;-84
2023/01/28 20:27:20;;;;;;;11.40;5.07;;;-0.10;99.90;;;;;;8275051;28;20030;-83
2023/01/28 20:31:20;;;;;;;11.80;5.18;;;0.00;99.90;;;;;;8274204;28;20068;-83
2023/01/28 20:35:21;;;;;;;9.70;4.32;;;0.10;99.90;;;;;;8271419;28;20022;-83
2023/01/28 20:39:21;;;;;;;9.45;4.65;;;0.10;99.90;;;;;;8274973;28;20514;-82
2023/01/28 20:43:22;;;;;;;5.03;3.28;;;0.10;99.90;;;;;;8272643;28;20033;-83
2023/01/28 20:47:22;;;;;;;7.45;3.47;;;0.00;99.90;;;;;;8264164;28;20061;-82
2023/01/28 20:51:26;;;;;;;1.50;0.93;;;0.00;99.90;;;;;;8285528;28;20031;-83
2023/01/28 20:55:27;;;;;;;9.68;4.63;;;-0.10;99.90;;;;;;8271404;28;20037;-82
2023/01/28 20:59:28;;;;;;;11.65;5.90;;;-0.10;99.90;;;;;;8267262;28;20038;-82
2023/01/28 21:03:29;;;;;;;7.32;3.50;;;-0.10;99.90;;;;;;8261867;28;20099;-82
2023/01/28 21:07:30;;;;;;;4.60;2.30;;;0.00;99.90;;;;;;8257557;28;20026;-82
2023/01/28 21:11:30;;;;;;;10.50;5.20;;;0.00;99.90;;;;;;8286162;28;20030;-82
2023/01/28 21:15:31;;;;;;;12.65;5.05;;;0.00;99.90;;;;;;8263079;28;20022;-83
2023/01/28 21:19:31;;;;;;;11.13;5.07;;;0.00;99.90;;;;;;8260191;28;20042;-83
2023/01/28 21:23:32;;;;;;;2.78;1.60;;;0.10;99.90;;;;;;8269155;28;20027;-83
2023/01/28 21:27:34;;;;;;;12.38;3.97;;;0.10;99.90;;;;;;8272043;28;20037;-83
2023/01/28 21:31:35;;;;;;;10.13;4.68;;;0.00;99.90;;;;;;8265485;28;20026;-83
2023/01/28 21:35:41;;;;;;;9.73;4.78;;;-0.10;99.90;;;;;;8253800;28;20041;-83
2023/01/28 21:39:41;;;;;;;4.95;3.33;;;0.00;99.90;;;;;;8272925;28;20022;-83
2023/01/28 21:43:42;;;;;;;7.45;2.95;;;-0.10;99.90;;;;;;8275670;28;20410;-83
2023/01/28 21:47:42;;;;;;;7.28;4.18;;;-0.10;99.90;;;;;;8272456;28;20026;-83
2023/01/28 21:51:46;;;;;;;5.97;2.72;;;-0.10;99.90;;;;;;8295642;28;20037;-82
2023/01/28 21:55:46;;;;;;;12.90;7.18;;;-0.10;99.90;;;;;;8278319;28;20040;-83
2023/01/28 21:59:47;;;;;;;8.07;3.15;;;0.00;99.90;;;;;;8275415;28;20022;-83
2023/01/28 22:03:47;;;;;;;13.13;5.55;;;0.10;99.90;;;;;;8260429;28;20028;-82
2023/01/28 22:07:48;;;;;;;14.57;5.50;;;0.10;99.90;;;;;;8269076;28;20033;-83
2023/01/28 22:11:49;;;;;;;12.35;5.95;;;0.10;99.90;;;;;;8270019;28;20498;-83